Time;durP1;ratioP1;P1;durP2;ratioP2;P2;SDS_P1;SDS_P2;PMS_P1;PMS_P2;Temp;Humidity;BMP_temperature;BMP_pressure;BME280_temperature;BME280_humidity;BME280_pressure;Samples;Min_cycle;Max_cycle;Signal;HPM_P1;HPM_P2
2022/08/14 00:02:04;;;;;;;7.45;6.65;;;20.90;93.90;;;;;;5004890;28;20038;-71
2022/08/14 00:04:31;;;;;;;6.97;6.28;;;20.90;94.10;;;;;;5001163;28;20065;-71
2022/08/14 00:06:57;;;;;;;7.65;6.50;;;20.90;94.20;;;;;;4983395;28;21247;-70
2022/08/14 00:09:23;;;;;;;11.98;7.55;;;20.80;94.10;;;;;;5016719;28;20041;-71
2022/08/14 00:11:48;;;;;;;8.88;6.85;;;20.80;94.30;;;;;;5004038;28;20042;-71
2022/08/14 00:14:15;;;;;;;9.45;7.10;;;20.80;94.40;;;;;;5018731;28;20076;-71
2022/08/14 00:16:41;;;;;;;7.25;6.40;;;20.70;94.40;;;;;;4984452;28;20042;-71
2022/08/14 00:19:07;;;;;;;7.50;6.80;;;20.70;94.40;;;;;;4984231;28;20127;-71
2022/08/14 00:21:33;;;;;;;7.95;7.15;;;20.70;94.60;;;;;;4982758;28;20038;-71
2022/08/14 00:23:59;;;;;;;10.05;7.47;;;20.60;94.60;;;;;;5001539;28;20050;-71
2022/08/14 00:26:25;;;;;;;8.52;7.15;;;20.60;94.70;;;;;;4995642;28;20045;-71
2022/08/14 00:28:52;;;;;;;8.63;7.72;;;20.60;94.80;;;;;;4982886;28;20269;-71
2022/08/14 00:31:18;;;;;;;8.10;7.30;;;20.60;95.10;;;;;;4998563;28;20073;-71
2022/08/14 00:33:44;;;;;;;13.55;7.60;;;20.50;95.30;;;;;;4999452;28;20054;-71
2022/08/14 00:36:10;;;;;;;10.15;7.57;;;20.50;95.40;;;;;;4981511;28;20101;-70
2022/08/14 00:38:36;;;;;;;8.52;7.63;;;20.40;95.60;;;;;;5016016;28;20045;-71
2022/08/14 00:41:04;;;;;;;8.90;8.00;;;20.40;95.90;;;;;;4984564;28;20042;-71
2022/08/14 00:43:30;;;;;;;9.52;8.52;;;20.30;96.20;;;;;;4994615;28;20052;-71
2022/08/14 00:45:56;;;;;;;11.68;8.32;;;20.30;96.50;;;;;;4970025;28;20042;-71
2022/08/14 00:48:22;;;;;;;11.40;8.88;;;20.30;96.70;;;;;;4999487;28;20042;-71
2022/08/14 00:50:47;;;;;;;10.70;8.63;;;20.20;96.80;;;;;;4962968;28;20046;-71
2022/08/14 00:53:15;;;;;;;9.80;8.80;;;20.20;97.00;;;;;;5016033;28;20539;-71
2022/08/14 00:55:42;;;;;;;11.63;8.40;;;20.10;97.30;;;;;;5000869;28;20586;-71
2022/08/14 01:00:52;;;;;;;9.55;8.38;;;20.10;97.60;;;;;;4983249;28;20046;-71
2022/08/14 01:03:19;;;;;;;9.93;8.88;;;20.00;97.90;;;;;;5000776;28;20026;-71
2022/08/14 01:05:49;;;;;;;10.95;9.85;;;19.90;98.10;;;;;;4968908;28;20121;-71
2022/08/14 01:08:27;;;;;;;10.55;9.10;;;19.90;98.30;;;;;;5016542;28;20058;-71
2022/08/14 01:10:55;;;;;;;10.60;8.65;;;19.80;98.60;;;;;;5012752;28;20050;-71
2022/08/14 01:13:31;;;;;;;11.07;9.85;;;19.80;98.70;;;;;;5002094;28;20034;-71
2022/08/14 01:16:01;;;;;;;11.07;9.35;;;19.80;99.00;;;;;;4984457;28;20030;-71
2022/08/14 01:21:16;;;;;;;13.70;9.68;;;19.70;99.20;;;;;;4995606;28;20038;-71
2022/08/14 01:23:45;;;;;;;10.50;8.68;;;19.70;99.30;;;;;;4991539;28;20055;-71
2022/08/14 01:26:13;;;;;;;10.68;9.57;;;19.70;99.40;;;;;;5005225;28;20045;-71
2022/08/14 01:28:39;;;;;;;10.75;9.27;;;19.70;99.50;;;;;;4981146;28;20177;-71
2022/08/14 01:31:11;;;;;;;12.05;9.10;;;19.60;99.80;;;;;;4988127;28;20041;-70
2022/08/14 01:33:39;;;;;;;11.50;9.70;;;19.60;99.90;;;;;;5007513;28;20049;-71
2022/08/14 01:36:07;;;;;;;15.35;9.48;;;19.60;99.90;;;;;;4990236;28;20408;-71
2022/08/14 01:38:34;;;;;;;12.10;9.50;;;19.50;99.90;;;;;;4988221;28;20043;-71
2022/08/14 01:41:01;;;;;;;10.20;9.10;;;19.50;99.90;;;;;;4965918;28;20408;-71
2022/08/14 01:43:29;;;;;;;11.68;8.93;;;19.50;99.90;;;;;;4985890;28;20114;-71
2022/08/14 01:45:57;;;;;;;10.25;9.13;;;19.40;99.90;;;;;;5014633;28;20042;-71
2022/08/14 01:48:24;;;;;;;10.55;9.30;;;19.40;99.90;;;;;;5011280;28;20113;-71
2022/08/14 01:50:50;;;;;;;10.82;8.82;;;19.40;99.90;;;;;;4981565;28;20042;-71
2022/08/14 01:53:16;;;;;;;14.90;9.45;;;19.30;99.90;;;;;;4995828;28;20051;-71
2022/08/14 01:55:42;;;;;;;16.20;8.73;;;19.30;99.90;;;;;;4981133;28;20049;-71
2022/08/14 01:58:14;;;;;;;12.15;8.75;;;19.30;99.90;;;;;;4981428;28;20083;-71
2022/08/14 02:00:40;;;;;;;11.52;8.40;;;19.30;99.90;;;;;;4986620;28;20031;-71
2022/08/14 02:03:06;;;;;;;10.35;8.80;;;19.30;99.90;;;;;;4986979;28;20515;-71
2022/08/14 02:05:33;;;;;;;12.38;9.40;;;19.30;99.90;;;;;;4993918;28;20062;-71
2022/08/14 02:07:59;;;;;;;12.73;7.88;;;19.30;99.90;;;;;;4988205;28;20046;-71
2022/08/14 02:10:27;;;;;;;12.32;9.55;;;19.30;99.90;;;;;;4991220;28;20045;-71
2022/08/14 02:12:55;;;;;;;10.70;8.88;;;19.20;99.90;;;;;;4987800;28;20107;-70
2022/08/14 02:15:22;;;;;;;10.52;8.55;;;19.20;99.90;;;;;;4997381;28;20030;-71
2022/08/14 02:17:49;;;;;;;9.10;8.20;;;19.20;99.90;;;;;;5018995;28;20369;-70
2022/08/14 02:20:16;;;;;;;10.85;8.40;;;19.20;99.90;;;;;;4983588;28;20030;-71
2022/08/14 02:22:42;;;;;;;10.52;8.60;;;19.20;99.90;;;;;;4988365;28;20085;-71
2022/08/14 02:25:09;;;;;;;12.38;9.00;;;19.20;99.90;;;;;;4993665;28;20130;-71
2022/08/14 02:27:36;;;;;;;11.32;8.30;;;19.10;99.90;;;;;;4973189;28;20039;-71
2022/08/14 02:30:04;;;;;;;10.68;8.48;;;19.10;99.90;;;;;;4992970;28;20042;-71
2022/08/14 02:32:33;;;;;;;9.70;8.18;;;19.10;99.90;;;;;;4958015;28;20060;-71
2022/08/14 02:34:59;;;;;;;9.57;8.07;;;19.10;99.90;;;;;;4976924;28;20073;-71
2022/08/14 02:37:25;;;;;;;10.07;8.20;;;19.10;99.90;;;;;;4986394;28;20050;-71
2022/08/14 02:39:50;;;;;;;11.93;9.38;;;19.00;99.90;;;;;;5004195;28;20053;-71
2022/08/14 02:42:20;;;;;;;11.50;9.93;;;19.00;99.90;;;;;;4989528;28;20428;-71
2022/08/14 02:44:46;;;;;;;10.90;9.15;;;19.00;99.90;;;;;;5005711;28;20038;-71
2022/08/14 02:47:12;;;;;;;12.40;9.23;;;18.90;99.90;;;;;;4977051;28;20038;-71
2022/08/14 02:49:38;;;;;;;10.95;9.52;;;18.90;99.90;;;;;;4972333;28;20409;-71
2022/08/14 02:52:06;;;;;;;10.10;9.00;;;18.90;99.90;;;;;;4992621;28;20360;-71
2022/08/14 02:54:33;;;;;;;14.20;8.80;;;18.80;99.90;;;;;;4975103;28;20340;-71
2022/08/14 02:56:59;;;;;;;12.43;8.10;;;18.80;99.90;;;;;;4990482;28;20722;-71
2022/08/14 02:59:29;;;;;;;10.27;9.20;;;18.70;99.90;;;;;;4989063;28;20057;-71
2022/08/14 03:01:56;;;;;;;11.48;9.02;;;18.70;99.90;;;;;;4989390;28;20503;-69
2022/08/14 03:04:22;;;;;;;9.82;8.43;;;18.70;99.90;;;;;;4991226;28;20042;-69
2022/08/14 03:06:49;;;;;;;10.55;8.95;;;18.70;99.90;;;;;;4995380;28;20429;-69
2022/08/14 03:09:15;;;;;;;11.00;9.48;;;18.70;99.90;;;;;;4992175;28;20198;-69
2022/08/14 03:11:43;;;;;;;12.45;10.98;;;18.60;99.90;;;;;;4976998;28;20049;-69
2022/08/14 03:14:10;;;;;;;14.98;11.02;;;18.60;99.90;;;;;;4957464;28;20054;-69
2022/08/14 03:16:38;;;;;;;12.05;9.90;;;18.60;99.90;;;;;;4978306;28;20053;-69
2022/08/14 03:19:08;;;;;;;11.13;9.25;;;18.60;99.90;;;;;;4974257;28;20392;-69
2022/08/14 03:21:35;;;;;;;11.88;9.95;;;18.60;99.90;;;;;;4972943;28;20082;-70
2022/08/14 03:24:10;;;;;;;11.32;10.13;;;18.50;99.90;;;;;;4987046;28;20050;-70
2022/08/14 03:26:38;;;;;;;12.75;10.65;;;18.50;99.90;;;;;;4990106;28;20038;-69
2022/08/14 03:29:05;;;;;;;13.93;10.63;;;18.50;99.90;;;;;;5020261;28;20443;-69
2022/08/14 03:31:31;;;;;;;11.93;10.63;;;18.50;99.90;;;;;;5010456;28;20045;-69
2022/08/14 03:33:58;;;;;;;12.45;10.35;;;18.50;99.90;;;;;;4988635;28;20042;-69
2022/08/14 03:36:24;;;;;;;11.07;9.98;;;18.50;99.90;;;;;;4990585;28;20056;-69
2022/08/14 03:38:52;;;;;;;11.90;10.57;;;18.50;99.90;;;;;;5006009;28;20034;-69
2022/08/14 03:41:21;;;;;;;13.43;10.30;;;18.40;99.90;;;;;;5020669;28;20522;-69
2022/08/14 03:43:57;;;;;;;12.55;10.23;;;18.40;99.90;;;;;;5023361;28;20111;-69
2022/08/14 03:46:26;;;;;;;13.32;10.30;;;18.40;99.90;;;;;;4986937;28;20034;-69
2022/08/14 03:48:54;;;;;;;11.77;9.55;;;18.40;99.90;;;;;;4990539;28;20046;-69
2022/08/14 03:51:21;;;;;;;14.32;10.45;;;18.30;99.90;;;;;;4974578;28;20467;-69
2022/08/14 03:53:48;;;;;;;14.18;10.82;;;18.30;99.90;;;;;;5007452;28;20049;-69
2022/08/14 03:56:16;;;;;;;11.93;9.90;;;18.30;99.90;;;;;;5008331;28;20613;-70
2022/08/14 03:58:49;;;;;;;16.38;10.40;;;18.30;99.90;;;;;;4989376;28;20537;-69
2022/08/14 04:01:18;;;;;;;13.55;10.73;;;18.20;99.90;;;;;;5006106;28;20542;-69
2022/08/14 04:03:45;;;;;;;11.70;10.35;;;18.20;99.90;;;;;;5016509;28;20171;-69
2022/08/14 04:06:11;;;;;;;11.68;10.48;;;18.20;99.90;;;;;;4990135;28;20052;-69
2022/08/14 04:08:38;;;;;;;13.55;10.48;;;18.20;99.90;;;;;;4995033;28;20037;-70
2022/08/14 04:11:06;;;;;;;11.95;10.60;;;18.20;99.90;;;;;;5021537;28;20100;-70
2022/08/14 04:13:35;;;;;;;12.25;10.20;;;18.10;99.90;;;;;;5018591;28;20476;-69
2022/08/14 04:16:03;;;;;;;16.75;11.93;;;18.10;99.90;;;;;;5010758;28;20450;-69
2022/08/14 04:18:29;;;;;;;11.60;10.40;;;18.10;99.90;;;;;;4991568;28;20034;-69
2022/08/14 04:20:56;;;;;;;13.70;11.15;;;18.10;99.90;;;;;;5009093;28;20030;-69
2022/08/14 04:23:23;;;;;;;13.50;10.98;;;18.10;99.90;;;;;;5000488;28;20136;-69
2022/08/14 04:25:52;;;;;;;12.93;11.18;;;18.10;99.90;;;;;;5004835;28;20026;-69
2022/08/14 04:28:18;;;;;;;12.48;11.05;;;18.00;99.90;;;;;;4990965;28;20514;-69
2022/08/14 04:30:44;;;;;;;15.25;12.40;;;18.10;99.90;;;;;;5005895;28;20041;-69
2022/08/14 04:33:10;;;;;;;12.82;11.52;;;18.10;99.90;;;;;;4973496;28;20392;-69
2022/08/14 04:35:37;;;;;;;14.75;12.25;;;18.00;99.90;;;;;;5020890;28;20049;-70
2022/08/14 04:43:37;;;;;;;14.57;11.02;;;18.10;99.90;;;;;;5008146;28;20478;-69
2022/08/14 04:46:12;;;;;;;15.50;12.32;;;18.10;99.90;;;;;;5005313;28;20049;-69
2022/08/14 04:48:38;;;;;;;14.13;11.85;;;18.10;99.90;;;;;;5009478;28;20049;-69
2022/08/14 04:51:06;;;;;;;15.25;12.48;;;18.10;99.90;;;;;;5020221;28;22218;-69
2022/08/14 04:53:33;;;;;;;13.30;11.75;;;18.10;99.90;;;;;;5005785;28;20050;-69
2022/08/14 04:55:59;;;;;;;13.25;11.30;;;18.10;99.90;;;;;;5010256;28;20530;-69
2022/08/14 04:58:29;;;;;;;14.55;12.85;;;18.10;99.90;;;;;;4990665;28;20078;-70
2022/08/14 05:00:56;;;;;;;14.55;12.88;;;18.10;99.90;;;;;;5003132;28;20037;-70
2022/08/14 05:03:32;;;;;;;14.98;12.52;;;18.10;99.90;;;;;;5006010;28;20038;-70
2022/08/14 05:06:00;;;;;;;13.98;12.25;;;18.10;99.90;;;;;;5004094;28;20069;-70
2022/08/14 05:08:27;;;;;;;14.15;11.38;;;18.10;99.90;;;;;;5012922;28;20041;-69
2022/08/14 05:10:55;;;;;;;12.52;11.23;;;18.10;99.90;;;;;;5022316;28;20069;-69
2022/08/14 05:13:22;;;;;;;15.27;12.35;;;18.20;99.90;;;;;;5017839;28;20052;-69
2022/08/14 05:15:51;;;;;;;13.45;11.55;;;18.20;99.90;;;;;;4989970;28;20397;-70
2022/08/14 05:18:20;;;;;;;12.70;11.40;;;18.30;99.90;;;;;;5009389;28;20060;-69
2022/08/14 05:20:49;;;;;;;14.90;11.27;;;18.30;99.90;;;;;;5004971;28;20080;-69
2022/08/14 05:23:21;;;;;;;16.08;11.27;;;18.40;99.90;;;;;;5009573;28;20065;-69
2022/08/14 05:25:48;;;;;;;15.60;12.60;;;18.50;99.90;;;;;;5005536;28;20049;-69
2022/08/14 05:28:18;;;;;;;15.27;12.35;;;18.50;99.90;;;;;;4990441;28;20506;-69
2022/08/14 05:30:46;;;;;;;15.52;11.77;;;18.60;99.90;;;;;;4990370;28;20124;-70
2022/08/14 05:33:15;;;;;;;16.73;11.60;;;18.70;99.90;;;;;;4994321;28;20049;-69
2022/08/14 05:35:42;;;;;;;18.95;12.60;;;18.80;99.90;;;;;;4974981;28;20045;-69
2022/08/14 05:38:09;;;;;;;14.10;12.70;;;18.90;99.90;;;;;;4969835;28;20559;-70
2022/08/14 05:40:36;;;;;;;15.75;13.00;;;18.90;99.90;;;;;;4989884;28;20042;-69
2022/08/14 05:43:02;;;;;;;15.95;12.88;;;19.00;99.90;;;;;;5006667;28;20038;-69
2022/08/14 05:45:27;;;;;;;15.15;12.88;;;19.00;99.90;;;;;;5011592;28;20091;-69
2022/08/14 05:47:53;;;;;;;15.95;13.85;;;19.10;99.90;;;;;;4988693;28;20048;-69
2022/08/14 05:50:19;;;;;;;17.40;13.27;;;19.10;99.90;;;;;;4995293;28;20038;-69
2022/08/14 05:52:48;;;;;;;19.25;13.23;;;19.10;99.90;;;;;;5010653;28;20036;-69
2022/08/14 05:55:14;;;;;;;14.40;12.05;;;19.20;99.90;;;;;;5010048;28;20450;-69
2022/08/14 05:57:51;;;;;;;16.50;12.90;;;19.20;99.90;;;;;;5010372;28;20034;-69
2022/08/14 06:00:19;;;;;;;20.30;12.50;;;19.30;99.90;;;;;;5017452;28;20084;-69
2022/08/14 06:02:45;;;;;;;14.07;12.45;;;19.30;99.90;;;;;;4992043;28;20045;-69
2022/08/14 06:05:10;;;;;;;14.60;12.70;;;19.20;99.90;;;;;;5023776;28;20516;-69
2022/08/14 06:07:37;;;;;;;16.27;12.90;;;19.40;99.90;;;;;;5006389;28;20447;-69
2022/08/14 06:10:05;;;;;;;16.00;12.80;;;19.40;99.90;;;;;;4992182;28;20104;-69
2022/08/14 06:12:31;;;;;;;14.13;11.95;;;19.50;99.90;;;;;;5018986;28;20718;-69
2022/08/14 06:14:58;;;;;;;16.17;12.63;;;19.60;99.90;;;;;;5008812;28;20096;-69
2022/08/14 06:17:24;;;;;;;14.20;11.70;;;19.70;99.90;;;;;;5012495;28;20033;-69
2022/08/14 06:19:50;;;;;;;12.45;11.15;;;19.80;99.90;;;;;;4992468;28;20121;-69
2022/08/14 06:22:16;;;;;;;14.57;11.73;;;19.90;99.90;;;;;;4991196;28;20133;-69
2022/08/14 06:24:42;;;;;;;13.48;11.55;;;20.00;99.90;;;;;;4993632;28;20103;-69
2022/08/14 06:27:08;;;;;;;13.13;11.13;;;20.10;99.90;;;;;;5002486;28;20038;-69
2022/08/14 06:29:35;;;;;;;14.18;10.90;;;20.20;99.90;;;;;;4984552;28;20082;-70
2022/08/14 06:32:02;;;;;;;13.40;11.15;;;20.30;99.90;;;;;;4991526;28;20103;-70
2022/08/14 06:34:27;;;;;;;12.13;10.80;;;20.50;99.90;;;;;;5019451;28;20042;-70
2022/08/14 06:36:55;;;;;;;11.68;10.57;;;20.50;99.90;;;;;;4992228;28;20053;-69
2022/08/14 06:39:22;;;;;;;15.00;10.38;;;20.70;99.90;;;;;;5007635;28;20557;-70
2022/08/14 06:41:47;;;;;;;14.73;10.02;;;20.80;99.90;;;;;;5008340;28;20447;-69
2022/08/14 06:44:13;;;;;;;12.32;10.15;;;21.00;99.90;;;;;;5010144;28;20037;-69
2022/08/14 06:46:39;;;;;;;11.45;9.57;;;21.10;99.90;;;;;;4992305;28;20048;-70
2022/08/14 06:49:05;;;;;;;11.75;9.88;;;21.30;99.90;;;;;;5023186;28;20046;-70
2022/08/14 06:51:31;;;;;;;11.50;8.98;;;21.40;99.90;;;;;;4975529;28;20416;-69
2022/08/14 06:53:56;;;;;;;10.30;9.13;;;21.50;99.90;;;;;;4990694;28;20045;-70
2022/08/14 06:56:22;;;;;;;14.38;9.85;;;21.70;99.90;;;;;;5008404;28;20042;-69
2022/08/14 06:58:48;;;;;;;14.07;8.80;;;21.80;99.90;;;;;;5007293;28;20038;-69
2022/08/14 07:06:42;;;;;;;11.90;8.05;;;22.20;99.90;;;;;;4989503;28;20046;-70
2022/08/14 07:09:09;;;;;;;9.40;8.27;;;22.40;99.90;;;;;;4975764;28;20053;-69
2022/08/14 07:11:35;;;;;;;10.35;8.20;;;22.60;99.90;;;;;;4994293;28;20513;-69
2022/08/14 07:14:01;;;;;;;11.48;7.65;;;22.70;99.90;;;;;;4976982;28;20030;-69
2022/08/14 07:16:27;;;;;;;10.48;8.38;;;22.90;99.90;;;;;;5008340;28;20050;-69
2022/08/14 07:18:53;;;;;;;8.38;7.43;;;23.10;99.90;;;;;;4991294;28;20030;-70
2022/08/14 07:21:18;;;;;;;9.40;7.78;;;23.20;99.90;;;;;;4974646;28;20095;-70
2022/08/14 07:23:44;;;;;;;8.80;7.75;;;23.40;99.90;;;;;;5005312;28;20078;-70
2022/08/14 07:26:12;;;;;;;11.55;8.07;;;23.60;99.90;;;;;;5004314;28;20045;-69
2022/08/14 07:28:39;;;;;;;10.48;7.45;;;23.80;99.90;;;;;;4993448;28;20085;-70
2022/08/14 07:31:10;;;;;;;17.15;8.10;;;24.00;99.90;;;;;;4991380;28;20045;-70
2022/08/14 07:33:42;;;;;;;10.15;7.15;;;24.20;99.90;;;;;;4989196;28;20116;-70
2022/08/14 07:36:10;;;;;;;16.15;7.93;;;24.40;99.90;;;;;;5020936;28;20054;-70
2022/08/14 07:38:36;;;;;;;13.05;7.63;;;24.60;99.90;;;;;;5021669;28;20042;-70
2022/08/14 07:41:04;;;;;;;10.00;7.28;;;24.70;99.90;;;;;;5007340;28;20144;-69
2022/08/14 07:43:30;;;;;;;11.15;7.38;;;24.90;99.90;;;;;;4993112;28;20034;-70
2022/08/14 07:45:55;;;;;;;17.95;7.78;;;25.00;99.90;;;;;;5022708;28;20538;-70
2022/08/14 07:48:21;;;;;;;9.60;7.60;;;25.10;99.90;;;;;;4991931;28;20104;-70
2022/08/14 07:50:49;;;;;;;10.75;7.28;;;25.20;99.90;;;;;;4990723;28;20038;-69
2022/08/14 07:53:15;;;;;;;13.50;6.90;;;25.30;99.90;;;;;;4989958;28;20455;-70
2022/08/14 07:55:42;;;;;;;14.07;7.82;;;25.40;99.90;;;;;;5011767;28;20038;-70
2022/08/14 07:58:09;;;;;;;9.95;6.78;;;25.50;99.90;;;;;;4990026;28;20295;-70
2022/08/14 08:00:35;;;;;;;12.23;7.38;;;25.70;99.90;;;;;;4990084;28;20045;-70
2022/08/14 08:03:02;;;;;;;15.15;7.55;;;25.70;99.80;;;;;;5021438;28;20081;-70
2022/08/14 08:05:28;;;;;;;7.63;6.30;;;25.90;99.70;;;;;;5022374;28;20108;-69
2022/08/14 08:07:54;;;;;;;7.50;6.70;;;26.10;99.40;;;;;;4993393;28;20121;-70
2022/08/14 08:10:31;;;;;;;12.80;6.38;;;26.20;99.30;;;;;;4998817;28;20067;-70
2022/08/14 08:13:22;;;;;;;8.57;6.95;;;26.20;98.70;;;;;;5018248;28;20202;-70
2022/08/14 08:15:52;;;;;;;13.00;7.00;;;26.30;98.10;;;;;;4977506;28;20045;-70
2022/08/14 08:18:19;;;;;;;8.45;6.32;;;26.30;97.40;;;;;;5011243;28;20056;-69
2022/08/14 08:20:47;;;;;;;8.23;5.68;;;26.30;97.90;;;;;;4991512;28;20175;-70
2022/08/14 08:23:15;;;;;;;7.95;6.20;;;26.50;98.10;;;;;;5003044;28;20089;-69
2022/08/14 08:25:44;;;;;;;7.22;6.13;;;26.50;97.50;;;;;;4993955;28;20052;-70
2022/08/14 08:28:16;;;;;;;11.15;6.80;;;26.70;97.60;;;;;;4994112;28;20269;-72
2022/08/14 08:30:55;;;;;;;8.45;6.30;;;26.80;97.40;;;;;;4990170;28;20040;-72
2022/08/14 08:33:23;;;;;;;10.23;6.50;;;26.80;97.00;;;;;;5005790;28;20038;-72
2022/08/14 08:35:49;;;;;;;11.68;6.60;;;26.90;96.80;;;;;;4998235;28;20030;-72
2022/08/14 08:38:17;;;;;;;17.02;6.60;;;26.90;96.70;;;;;;4994357;28;20411;-73
2022/08/14 08:40:49;;;;;;;6.97;5.85;;;27.00;96.60;;;;;;5012416;28;20427;-74
2022/08/14 08:43:31;;;;;;;9.30;6.22;;;27.20;96.60;;;;;;4976764;28;20402;-73
2022/08/14 08:46:01;;;;;;;7.00;5.88;;;27.30;95.20;;;;;;5009938;28;20193;-73
2022/08/14 08:48:50;;;;;;;9.75;5.88;;;27.30;96.00;;;;;;4976738;28;20050;-73
2022/08/14 08:51:29;;;;;;;8.77;5.97;;;27.40;95.60;;;;;;4993530;28;20077;-73
2022/08/14 08:54:04;;;;;;;14.57;6.85;;;27.40;95.30;;;;;;4992233;28;20033;-72
2022/08/14 08:56:40;;;;;;;8.85;5.95;;;27.50;94.90;;;;;;4976121;28;20046;-72
2022/08/14 08:59:22;;;;;;;10.35;5.85;;;27.60;94.90;;;;;;4992486;28;20132;-72
2022/08/14 09:01:50;;;;;;;;;;;27.70;94.90;;;;;;4976798;28;20657;-72
2022/08/14 09:04:16;;;;;;;6.03;5.45;;;27.70;94.10;;;;;;4992612;28;19976;-72
2022/08/14 09:06:44;;;;;;;6.60;5.45;;;27.80;94.60;;;;;;4992318;28;20030;-72
2022/08/14 09:09:18;;;;;;;7.32;5.55;;;27.80;94.10;;;;;;4975893;28;20462;-73
2022/08/14 09:11:44;;;;;;;11.60;5.60;;;27.90;93.90;;;;;;4999563;28;20037;-72
2022/08/14 09:14:10;;;;;;;6.40;5.80;;;28.00;94.20;;;;;;4978060;28;20045;-72
2022/08/14 09:16:36;;;;;;;6.45;5.85;;;28.10;94.00;;;;;;4992629;28;20037;-72
2022/08/14 09:19:03;;;;;;;6.97;6.20;;;28.20;93.60;;;;;;4988730;28;20475;-72
2022/08/14 09:21:29;;;;;;;13.70;5.93;;;28.30;93.60;;;;;;5004195;28;20034;-72
2022/08/14 09:23:55;;;;;;;14.05;6.70;;;28.40;93.40;;;;;;5020876;28;20116;-72
2022/08/14 09:26:21;;;;;;;6.90;6.20;;;28.40;93.20;;;;;;4996681;28;20046;-73
2022/08/14 09:28:47;;;;;;;9.73;6.20;;;28.40;93.00;;;;;;4980504;28;20049;-72
2022/08/14 09:31:14;;;;;;;10.82;6.88;;;28.40;93.00;;;;;;4997005;28;20049;-72
2022/08/14 09:34:02;;;;;;;7.72;5.75;;;28.50;92.80;;;;;;4980339;28;20669;-73
2022/08/14 09:37:06;;;;;;;7.00;5.97;;;28.60;92.30;;;;;;5002174;28;20076;-72
2022/08/14 09:40:10;;;;;;;8.15;6.68;;;28.70;92.00;;;;;;4916278;28;20058;-73
2022/08/14 09:43:13;;;;;;;7.82;6.43;;;28.80;92.50;;;;;;4996539;28;20100;-72
2022/08/14 09:45:47;;;;;;;12.18;6.38;;;28.90;92.00;;;;;;4996458;28;20041;-72
2022/08/14 09:48:18;;;;;;;8.38;6.47;;;29.10;91.90;;;;;;4996186;28;20046;-72
2022/08/14 09:50:49;;;;;;;8.10;6.55;;;29.20;92.30;;;;;;4996386;28;20052;-73
2022/08/14 09:53:17;;;;;;;;;;;29.30;91.90;;;;;;4980243;28;20050;-72
2022/08/14 09:55:43;;;;;;;7.60;5.68;;;29.50;90.90;;;;;;4996481;28;19917;-72
2022/08/14 09:58:11;;;;;;;7.80;6.85;;;29.50;91.50;;;;;;5013599;28;20662;-72
2022/08/14 10:00:47;;;;;;;7.15;6.47;;;29.40;90.80;;;;;;4996400;28;20038;-73
2022/08/14 10:03:24;;;;;;;7.10;6.40;;;29.50;90.90;;;;;;5000016;28;20504;-72
2022/08/14 10:05:50;;;;;;;6.10;5.50;;;29.60;90.90;;;;;;4996376;28;20116;-73
2022/08/14 10:08:20;;;;;;;7.68;6.05;;;29.80;91.10;;;;;;4979800;28;20474;-72
2022/08/14 10:10:46;;;;;;;7.47;6.63;;;29.90;91.00;;;;;;4996202;28;20046;-72
2022/08/14 10:13:25;;;;;;;11.63;5.88;;;30.00;90.30;;;;;;4995301;28;20565;-73
2022/08/14 10:15:57;;;;;;;9.30;6.07;;;30.20;89.70;;;;;;4994442;28;20030;-72
2022/08/14 10:18:27;;;;;;;6.88;5.57;;;30.30;90.00;;;;;;4979696;28;20045;-72
2022/08/14 10:20:59;;;;;;;5.97;5.38;;;30.30;88.80;;;;;;4995835;28;20049;-73
2022/08/14 10:23:28;;;;;;;12.65;6.20;;;30.30;88.90;;;;;;4995493;28;20057;-72
2022/08/14 10:26:06;;;;;;;13.20;6.90;;;30.50;89.20;;;;;;4979589;28;20045;-73
2022/08/14 10:28:47;;;;;;;7.45;5.57;;;30.60;86.90;;;;;;4996083;28;20129;-72
2022/08/14 10:31:23;;;;;;;6.35;5.70;;;30.60;85.60;;;;;;4997374;28;20394;-72
2022/08/14 10:34:10;;;;;;;10.85;6.10;;;30.80;87.00;;;;;;4979504;28;20046;-72
2022/08/14 10:36:40;;;;;;;11.00;6.28;;;30.90;84.30;;;;;;5007096;28;20129;-72
2022/08/14 10:39:18;;;;;;;11.65;5.88;;;31.00;85.50;;;;;;4995273;28;20133;-72
2022/08/14 10:41:45;;;;;;;13.23;5.95;;;31.10;83.20;;;;;;4980007;28;20034;-73
2022/08/14 10:44:17;;;;;;;6.55;5.97;;;31.00;84.10;;;;;;4996791;28;20034;-72
2022/08/14 10:46:52;;;;;;;7.68;5.63;;;31.00;83.40;;;;;;4980231;28;20026;-72
2022/08/14 10:49:22;;;;;;;8.35;6.10;;;31.10;83.70;;;;;;4996765;28;20054;-72
2022/08/14 10:52:06;;;;;;;7.22;5.97;;;31.20;84.70;;;;;;4997809;28;20038;-72
2022/08/14 10:54:36;;;;;;;6.57;5.78;;;31.40;84.00;;;;;;4994923;28;20049;-72
2022/08/14 10:57:17;;;;;;;10.30;6.43;;;31.50;84.20;;;;;;4995597;28;20065;-72
2022/08/14 10:59:50;;;;;;;6.90;5.55;;;31.60;83.90;;;;;;4992085;28;20095;-72
2022/08/14 11:02:30;;;;;;;6.78;5.43;;;31.70;83.60;;;;;;4995765;28;20056;-72
2022/08/14 11:05:13;;;;;;;7.05;5.22;;;31.80;82.30;;;;;;5004761;28;20061;-72
2022/08/14 11:08:02;;;;;;;5.70;5.03;;;31.80;81.90;;;;;;5002986;28;20112;-72
2022/08/14 11:10:47;;;;;;;9.05;5.80;;;32.00;82.60;;;;;;4975017;28;20042;-74
2022/08/14 11:13:22;;;;;;;6.05;5.55;;;32.00;82.40;;;;;;4985368;28;20038;-71
2022/08/14 11:15:49;;;;;;;5.68;4.90;;;31.80;80.30;;;;;;4988331;28;20470;-71
2022/08/14 11:18:15;;;;;;;7.65;5.22;;;31.70;80.20;;;;;;4985279;28;20049;-72
2022/08/14 11:20:48;;;;;;;6.88;5.15;;;31.60;80.60;;;;;;5020224;28;20034;-73
2022/08/14 11:23:15;;;;;;;11.40;5.80;;;31.30;80.90;;;;;;4985398;28;20061;-74
2022/08/14 11:25:44;;;;;;;12.13;6.55;;;31.00;80.70;;;;;;4999735;28;20049;-73
2022/08/14 11:28:14;;;;;;;8.82;5.35;;;31.00;81.30;;;;;;5000912;28;20137;-73
2022/08/14 11:30:43;;;;;;;8.50;5.03;;;31.20;82.00;;;;;;4965534;28;20528;-72
2022/08/14 11:33:10;;;;;;;6.43;5.20;;;31.50;81.60;;;;;;4998737;28;20038;-72
2022/08/14 11:35:36;;;;;;;6.47;5.07;;;31.80;80.50;;;;;;4978070;28;20464;-72
2022/08/14 11:38:05;;;;;;;5.72;4.80;;;32.00;80.10;;;;;;4970528;28;20053;-71
2022/08/14 11:40:35;;;;;;;5.95;4.90;;;32.10;79.50;;;;;;4974995;28;20548;-71
2022/08/14 11:43:04;;;;;;;5.60;5.10;;;32.30;78.00;;;;;;5019465;28;20080;-72
2022/08/14 11:45:35;;;;;;;8.35;5.10;;;32.40;78.10;;;;;;4979328;28;20046;-72
2022/08/14 11:48:16;;;;;;;7.20;4.72;;;32.30;77.90;;;;;;4988327;28;20042;-72
2022/08/14 11:50:44;;;;;;;6.82;4.75;;;32.50;75.70;;;;;;4989036;28;20380;-72
2022/08/14 11:53:30;;;;;;;8.35;5.25;;;32.60;77.80;;;;;;5007184;28;20038;-72
2022/08/14 11:56:05;;;;;;;6.50;5.38;;;32.80;77.90;;;;;;5004651;28;20118;-73
2022/08/14 11:58:34;;;;;;;9.02;5.45;;;32.90;76.70;;;;;;4989405;28;20435;-72
2022/08/14 12:01:03;;;;;;;5.63;4.93;;;32.80;76.30;;;;;;4973327;28;20049;-73
2022/08/14 12:03:35;;;;;;;9.88;5.57;;;32.50;76.20;;;;;;4973737;28;20096;-73
2022/08/14 12:06:10;;;;;;;8.07;5.35;;;32.20;76.50;;;;;;4963907;28;20034;-72
2022/08/14 12:08:37;;;;;;;8.05;5.45;;;31.90;76.50;;;;;;4989596;28;20045;-73
2022/08/14 12:11:04;;;;;;;6.53;4.95;;;31.70;76.80;;;;;;4985098;28;20042;-73
2022/08/14 12:13:31;;;;;;;8.25;5.22;;;31.50;76.90;;;;;;4985312;28;20048;-73
2022/08/14 12:16:02;;;;;;;12.20;5.93;;;31.50;76.90;;;;;;4984874;28;20042;-74
2022/08/14 12:18:36;;;;;;;8.77;5.28;;;31.80;78.10;;;;;;4984007;28;20053;-74
2022/08/14 12:21:22;;;;;;;9.80;5.47;;;32.00;76.50;;;;;;4981258;28;20096;-72
2022/08/14 12:24:03;;;;;;;13.75;5.78;;;32.30;76.30;;;;;;4983125;28;20061;-75
2022/08/14 12:26:29;;;;;;;6.30;5.20;;;32.30;75.70;;;;;;5005138;28;20100;-75
2022/08/14 12:29:13;;;;;;;6.78;5.30;;;32.50;74.80;;;;;;4990289;28;20133;-76
2022/08/14 12:31:45;;;;;;;6.25;5.65;;;32.50;74.40;;;;;;4988128;28;20521;-75
2022/08/14 12:34:13;;;;;;;9.88;5.05;;;32.60;74.80;;;;;;5004206;28;20049;-74
2022/08/14 12:36:39;;;;;;;8.27;5.75;;;32.50;74.90;;;;;;4971480;28;20037;-74
2022/08/14 12:39:19;;;;;;;6.32;5.53;;;32.80;75.10;;;;;;5004215;28;20044;-75
2022/08/14 12:41:55;;;;;;;8.77;5.97;;;32.80;73.20;;;;;;4998146;28;20038;-77
2022/08/14 12:44:33;;;;;;;8.02;5.30;;;32.90;74.30;;;;;;4987544;28;20045;-75
2022/08/14 12:47:11;;;;;;;6.20;5.60;;;32.90;73.90;;;;;;5020528;28;20037;-76
2022/08/14 12:49:37;;;;;;;7.50;5.72;;;33.00;74.50;;;;;;4973125;28;20513;-75
2022/08/14 12:52:06;;;;;;;8.45;5.82;;;33.00;74.40;;;;;;4988388;28;20042;-75
2022/08/14 12:54:33;;;;;;;7.90;5.95;;;33.20;74.10;;;;;;5020932;28;20173;-74
2022/08/14 12:57:07;;;;;;;8.05;5.70;;;33.40;73.50;;;;;;5003265;28;20125;-75
2022/08/14 12:59:34;;;;;;;7.07;5.45;;;33.70;73.70;;;;;;4986714;28;20033;-74
2022/08/14 13:02:01;;;;;;;6.60;5.82;;;33.80;72.50;;;;;;5004443;28;20046;-75
2022/08/14 13:04:30;;;;;;;6.38;5.53;;;33.70;71.70;;;;;;5017397;28;20045;-75
2022/08/14 13:07:06;;;;;;;9.30;5.72;;;33.80;71.90;;;;;;4980221;28;20034;-75